createdAt,value
2022-11-23T00:00:43.063Z,14.00
2022-11-23T00:03:14.911Z,11.07
2022-11-23T00:05:41.829Z,12.80
2022-11-23T00:08:08.604Z,20.23
2022-11-23T00:10:36.231Z,22.38
2022-11-23T00:13:03.147Z,12.68
2022-11-23T00:15:30.031Z,20.63
2022-11-23T00:17:56.891Z,13.40
2022-11-23T00:20:23.700Z,13.82
2022-11-23T00:22:50.562Z,17.90
2022-11-23T00:25:17.455Z,18.50
2022-11-23T00:27:44.306Z,13.65
2022-11-23T00:30:11.663Z,9.57
2022-11-23T00:32:38.489Z,11.98
2022-11-23T00:35:07.312Z,13.95
2022-11-23T00:37:34.126Z,10.90
2022-11-23T00:40:01.114Z,15.65
2022-11-23T00:42:27.967Z,14.35
2022-11-23T00:44:55.062Z,12.38
2022-11-23T00:47:21.974Z,13.23
2022-11-23T00:49:49.201Z,12.60
2022-11-23T00:52:18.112Z,37.65
2022-11-23T00:54:45.331Z,41.90
2022-11-23T00:57:12.149Z,37.88
2022-11-23T00:59:39.958Z,31.52
2022-11-23T01:02:06.820Z,23.55
2022-11-23T01:04:33.928Z,27.30
2022-11-23T01:07:01.148Z,35.90
2022-11-23T01:09:28.580Z,37.63
2022-11-23T01:11:56.138Z,31.02
2022-11-23T01:14:24.995Z,26.23
2022-11-23T01:16:51.782Z,29.20
2022-11-23T01:19:20.890Z,26.40
2022-11-23T01:21:49.936Z,22.55
2022-11-23T01:24:19.943Z,28.17
2022-11-23T01:26:52.213Z,24.80
2022-11-23T01:29:20.288Z,22.37
2022-11-23T01:31:47.234Z,20.45
2022-11-23T01:34:16.237Z,21.63
2022-11-23T01:36:43.728Z,27.80
2022-11-23T01:39:12.275Z,26.65
2022-11-23T01:41:41.624Z,25.60
2022-11-23T01:44:27.633Z,27.90
2022-11-23T01:47:06.676Z,30.70
2022-11-23T01:49:50.536Z,30.95
2022-11-23T01:52:22.458Z,38.10
2022-11-23T01:54:53.716Z,15.43
2022-11-23T01:57:31.701Z,12.93
2022-11-23T02:00:00.944Z,13.32
2022-11-23T02:02:30.257Z,16.98
2022-11-23T02:05:01.842Z,18.65
2022-11-23T02:07:30.167Z,29.00
2022-11-23T02:09:57.142Z,23.92
2022-11-23T02:12:25.119Z,17.33
2022-11-23T02:14:52.635Z,30.85
2022-11-23T02:17:19.911Z,35.55
2022-11-23T02:20:03.045Z,27.90
2022-11-23T02:22:40.797Z,20.67
2022-11-23T02:25:26.404Z,30.98
2022-11-23T02:27:54.351Z,35.30
2022-11-23T02:30:21.280Z,24.63
2022-11-23T02:32:48.820Z,32.73
2022-11-23T02:35:17.670Z,30.20
2022-11-23T02:37:45.385Z,27.17
2022-11-23T02:40:41.722Z,23.53
2022-11-23T02:43:08.583Z,23.00
2022-11-23T02:45:41.283Z,25.37
2022-11-23T02:48:08.155Z,20.38
2022-11-23T02:50:37.708Z,24.00
2022-11-23T02:53:04.541Z,27.48
2022-11-23T02:55:32.297Z,23.40
2022-11-23T02:58:01.462Z,28.02
2022-11-23T03:00:28.868Z,25.37
2022-11-23T03:02:55.740Z,21.77
2022-11-23T03:05:22.680Z,21.33
2022-11-23T03:07:52.473Z,23.25
2022-11-23T03:10:20.730Z,21.75
2022-11-23T03:12:54.327Z,21.43
2022-11-23T03:15:21.727Z,20.73
2022-11-23T03:17:48.813Z,19.40
2022-11-23T03:20:16.875Z,6.67
2022-11-23T03:22:46.845Z,17.73
2022-11-23T03:25:15.898Z,18.02
2022-11-23T03:27:46.880Z,15.88
2022-11-23T03:30:14.434Z,16.90
2022-11-23T03:32:41.388Z,28.63
2022-11-23T03:35:09.564Z,18.27
2022-11-23T03:37:46.177Z,16.85
2022-11-23T03:40:14.231Z,13.10
2022-11-23T03:43:19.771Z,12.18
2022-11-23T03:45:47.579Z,17.90
2022-11-23T03:48:15.016Z,15.37
2022-11-23T03:50:42.676Z,11.97
2022-11-23T03:53:09.868Z,13.48
2022-11-23T03:55:37.069Z,15.65
2022-11-23T03:58:04.183Z,15.48
2022-11-23T04:00:34.703Z,15.85
2022-11-23T04:03:02.003Z,15.35
2022-11-23T04:05:47.986Z,19.23
2022-11-23T04:08:34.218Z,17.45
2022-11-23T04:11:06.046Z,22.60
2022-11-23T04:13:37.827Z,16.30
2022-11-23T04:16:08.300Z,22.35
2022-11-23T04:18:35.543Z,19.23
2022-11-23T04:21:02.509Z,19.92
2022-11-23T04:23:29.359Z,17.80
2022-11-23T04:25:56.586Z,13.77
2022-11-23T04:28:24.434Z,14.27
2022-11-23T04:30:52.492Z,14.52
2022-11-23T04:33:20.790Z,14.38
2022-11-23T04:35:47.587Z,13.43
2022-11-23T04:38:15.125Z,16.67
2022-11-23T04:40:42.962Z,12.95
2022-11-23T04:43:10.691Z,14.27
2022-11-23T04:45:40.706Z,13.70
2022-11-23T04:48:14.985Z,16.37
2022-11-23T04:50:46.568Z,14.77
2022-11-23T04:53:21.102Z,13.68
2022-11-23T04:55:49.736Z,15.20
2022-11-23T04:58:17.246Z,11.23
2022-11-23T05:00:46.568Z,15.07
2022-11-23T05:03:14.259Z,13.40
2022-11-23T05:05:42.251Z,13.30
2022-11-23T05:08:11.577Z,12.47
2022-11-23T05:10:49.684Z,15.73
2022-11-23T05:13:17.494Z,16.70
2022-11-23T05:15:45.330Z,19.10
2022-11-23T05:18:16.746Z,19.70
2022-11-23T05:20:44.968Z,20.67
2022-11-23T05:23:13.140Z,19.63
2022-11-23T05:25:43.247Z,20.70
2022-11-23T05:28:39.030Z,19.02
2022-11-23T05:31:06.356Z,22.73
2022-11-23T05:33:35.703Z,24.30
2022-11-23T05:36:04.291Z,24.73
2022-11-23T05:38:36.756Z,26.02
2022-11-23T05:41:09.167Z,23.75
2022-11-23T05:43:39.251Z,23.35
2022-11-23T05:46:08.351Z,23.65
2022-11-23T05:48:36.464Z,25.65
2022-11-23T05:51:08.744Z,27.23
2022-11-23T05:53:39.371Z,19.77
2022-11-23T05:56:14.410Z,19.02
2022-11-23T05:59:14.004Z,23.35
2022-11-23T06:01:45.196Z,17.00
2022-11-23T06:04:16.812Z,22.88
2022-11-23T06:06:46.597Z,21.67
2022-11-23T06:09:13.437Z,20.17
2022-11-23T06:11:44.841Z,26.65
2022-11-23T06:14:17.439Z,26.52
2022-11-23T06:16:46.235Z,20.65
2022-11-23T06:19:23.198Z,24.85
2022-11-23T06:21:51.998Z,28.85
2022-11-23T06:24:20.763Z,28.52
2022-11-23T06:26:58.201Z,23.25
2022-11-23T06:29:25.436Z,22.05
2022-11-23T06:31:52.366Z,21.90
2022-11-23T06:34:19.312Z,19.38
2022-11-23T06:36:46.247Z,17.38
2022-11-23T06:39:13.439Z,18.75
2022-11-23T06:41:40.290Z,17.58
2022-11-23T06:44:07.263Z,16.42
2022-11-23T06:46:39.787Z,18.75
2022-11-23T06:49:07.447Z,23.83
2022-11-23T06:51:34.981Z,25.10
2022-11-23T06:54:01.947Z,25.75
2022-11-23T06:56:31.054Z,22.95
2022-11-23T06:58:57.872Z,26.90
2022-11-23T07:01:27.214Z,29.35
2022-11-23T07:03:59.980Z,36.78
2022-11-23T07:06:31.675Z,30.83
2022-11-23T07:09:03.158Z,31.33
2022-11-23T07:11:59.139Z,25.38
2022-11-23T07:14:26.495Z,29.23
2022-11-23T07:16:55.921Z,26.33
2022-11-23T07:19:23.184Z,29.33
2022-11-23T07:21:51.619Z,26.50
2022-11-23T07:24:18.507Z,26.80
2022-11-23T07:26:45.476Z,25.35
2022-11-23T07:29:12.349Z,27.55
2022-11-23T07:31:40.058Z,36.05
2022-11-23T07:34:09.385Z,34.33
2022-11-23T07:36:36.756Z,41.30
2022-11-23T07:39:03.993Z,36.58
2022-11-23T07:41:30.880Z,43.50
2022-11-23T07:44:09.759Z,36.35
2022-11-23T07:46:36.841Z,31.35
2022-11-23T07:49:03.748Z,32.67
2022-11-23T07:51:31.012Z,28.65
2022-11-23T07:53:57.880Z,32.88
2022-11-23T07:56:24.952Z,29.35
2022-11-23T07:58:51.824Z,27.15
2022-11-23T08:01:19.778Z,28.90
2022-11-23T08:03:47.380Z,28.98
2022-11-23T08:06:15.411Z,27.33
2022-11-23T08:08:42.603Z,27.58
2022-11-23T08:11:10.311Z,28.20
2022-11-23T08:13:37.469Z,29.13
2022-11-23T08:16:04.745Z,32.85
2022-11-23T08:18:31.692Z,31.70
2022-11-23T08:21:01.872Z,38.03
2022-11-23T08:23:28.749Z,35.13
2022-11-23T08:25:55.884Z,38.00
2022-11-23T08:28:22.987Z,48.08
2022-11-23T08:30:50.292Z,57.25
2022-11-23T08:33:17.151Z,43.33
2022-11-23T08:35:44.831Z,49.15
2022-11-23T08:38:12.179Z,45.08
2022-11-23T08:40:39.556Z,52.22
2022-11-23T08:43:08.962Z,41.35
2022-11-23T08:45:35.869Z,40.75
2022-11-23T08:48:03.981Z,41.17
2022-11-23T08:50:31.535Z,42.38
2022-11-23T08:52:59.850Z,44.00
2022-11-23T08:55:27.829Z,51.83
2022-11-23T08:57:58.707Z,45.22
2022-11-23T09:00:27.059Z,41.22
2022-11-23T09:02:54.339Z,44.20
2022-11-23T09:05:21.143Z,45.88
2022-11-23T09:07:48.149Z,55.63
2022-11-23T09:10:18.888Z,56.05
2022-11-23T09:12:47.915Z,59.03
2022-11-23T09:15:15.310Z,49.65
2022-11-23T09:17:42.174Z,62.58
2022-11-23T09:20:10.571Z,49.78
2022-11-23T09:22:37.817Z,47.83
2022-11-23T09:25:06.801Z,53.42
2022-11-23T09:27:33.710Z,42.22
2022-11-23T09:30:00.588Z,51.42
2022-11-23T09:32:27.891Z,43.38
2022-11-23T09:34:54.730Z,39.03
2022-11-23T09:37:21.711Z,41.03
2022-11-23T09:39:48.536Z,39.40
2022-11-23T09:42:33.288Z,39.78
2022-11-23T09:45:22.852Z,39.50
2022-11-23T09:48:15.236Z,34.55
2022-11-23T09:50:55.024Z,36.65
2022-11-23T09:53:37.688Z,44.40
2022-11-23T09:56:06.095Z,37.53
2022-11-23T09:58:40.038Z,32.28
2022-11-23T10:01:14.573Z,34.35
2022-11-23T10:03:48.779Z,34.45
2022-11-23T10:06:26.030Z,40.33
2022-11-23T10:09:05.147Z,36.47
2022-11-23T10:12:10.446Z,27.50
2022-11-23T10:14:56.346Z,28.33
2022-11-23T10:17:30.480Z,31.30
2022-11-23T10:20:03.622Z,29.83
2022-11-23T10:23:01.824Z,29.88
2022-11-23T10:28:19.553Z,22.90
2022-11-23T10:30:57.184Z,33.30
2022-11-23T10:34:14.013Z,19.55
2022-11-23T10:36:42.138Z,11.18
2022-11-23T10:39:26.204Z,15.52
2022-11-23T10:41:57.001Z,12.65
2022-11-23T10:44:32.561Z,16.95
2022-11-23T10:47:00.214Z,20.75
2022-11-23T10:49:35.427Z,12.55
2022-11-23T10:52:38.117Z,14.98
2022-11-23T10:55:07.516Z,11.60
2022-11-23T10:57:42.488Z,11.02
2022-11-23T11:00:10.236Z,14.05
2022-11-23T11:02:47.847Z,17.02
2022-11-23T11:08:55.204Z,19.75
2022-11-23T11:11:27.498Z,20.02
2022-11-23T11:14:18.475Z,17.73
2022-11-23T11:16:54.093Z,18.58
2022-11-23T11:19:30.089Z,19.75
2022-11-23T11:21:59.813Z,29.77
2022-11-23T11:24:46.916Z,19.23
2022-11-23T11:27:21.658Z,32.40
2022-11-23T11:29:51.691Z,32.22
2022-11-23T11:32:26.059Z,31.38
2022-11-23T11:35:23.310Z,23.55
2022-11-23T11:37:55.370Z,32.30
2022-11-23T11:40:32.132Z,30.92
2022-11-23T11:43:22.854Z,29.63
2022-11-23T11:46:27.578Z,36.55
2022-11-23T11:48:53.528Z,23.60
2022-11-23T11:51:26.583Z,32.30
2022-11-23T11:53:56.762Z,26.20
2022-11-23T11:56:41.619Z,22.23
2022-11-23T11:59:14.535Z,33.92
2022-11-23T12:01:44.407Z,28.50
2022-11-23T12:04:40.472Z,26.88
2022-11-23T12:07:45.599Z,25.85
2022-11-23T12:10:28.070Z,24.52
2022-11-23T12:12:56.655Z,19.77
2022-11-23T12:15:48.880Z,28.60
2022-11-23T12:18:37.365Z,23.88
2022-11-23T12:21:32.452Z,20.90
2022-11-23T12:24:14.179Z,26.60
2022-11-23T12:26:58.060Z,30.27
2022-11-23T12:30:02.210Z,32.65
2022-11-23T12:32:50.154Z,26.33
2022-11-23T12:35:44.317Z,24.35
2022-11-23T12:38:11.099Z,26.98
2022-11-23T12:40:50.183Z,28.52
2022-11-23T12:43:24.483Z,30.38
2022-11-23T12:46:10.296Z,29.95
2022-11-23T12:48:55.351Z,28.00
2022-11-23T12:51:36.301Z,27.42
2022-11-23T12:54:13.823Z,19.35
2022-11-23T12:57:04.235Z,17.15
2022-11-23T12:59:50.965Z,15.82
2022-11-23T13:02:30.200Z,15.20
2022-11-23T13:05:05.821Z,14.40
2022-11-23T13:07:49.059Z,12.73
2022-11-23T13:10:28.652Z,20.58
2022-11-23T13:13:16.279Z,16.38
2022-11-23T13:18:31.461Z,26.60
2022-11-23T13:20:58.247Z,28.73
2022-11-23T13:23:25.218Z,28.08
2022-11-23T13:26:28.681Z,21.83
2022-11-23T13:28:58.645Z,24.25
2022-11-23T13:31:31.692Z,24.58
2022-11-23T13:34:04.269Z,22.60
2022-11-23T13:37:10.291Z,13.70
2022-11-23T13:39:51.846Z,22.73
2022-11-23T13:42:19.279Z,30.50
2022-11-23T13:44:46.125Z,18.33
2022-11-23T13:47:14.894Z,11.13
2022-11-23T13:49:43.043Z,13.27
2022-11-23T13:52:22.476Z,10.40
2022-11-23T13:55:01.492Z,7.40
2022-11-23T13:57:32.967Z,12.40
2022-11-23T14:00:37.228Z,30.75
2022-11-23T14:03:41.126Z,22.30
2022-11-23T14:06:17.511Z,19.33
2022-11-23T14:08:47.577Z,18.60
2022-11-23T14:11:21.518Z,14.13
2022-11-23T14:14:03.511Z,30.13
2022-11-23T14:17:07.643Z,23.10
2022-11-23T14:19:42.222Z,20.25
2022-11-23T14:22:49.538Z,14.50
2022-11-23T14:25:35.034Z,12.75
2022-11-23T14:28:25.459Z,27.85
2022-11-23T14:31:22.853Z,19.65
2022-11-23T14:34:01.871Z,23.83
2022-11-23T14:36:49.582Z,37.00
2022-11-23T14:42:20.798Z,28.77
2022-11-23T14:44:49.429Z,27.45
2022-11-23T14:47:28.937Z,26.02
2022-11-23T14:49:57.737Z,33.15
2022-11-23T14:52:36.855Z,29.20
2022-11-23T14:55:06.765Z,34.78
2022-11-23T14:57:45.834Z,31.98
2022-11-23T15:00:34.286Z,35.90
2022-11-23T15:03:48.879Z,44.70
2022-11-23T15:06:13.863Z,43.38
2022-11-23T15:09:08.067Z,30.45
2022-11-23T15:11:38.767Z,30.23
2022-11-23T15:14:18.930Z,26.67
2022-11-23T15:16:47.846Z,32.30
2022-11-23T15:19:28.916Z,35.25
2022-11-23T15:21:58.012Z,28.80
2022-11-23T15:24:27.087Z,30.30
2022-11-23T15:27:09.505Z,42.42
2022-11-23T15:29:40.097Z,30.50
2022-11-23T15:32:33.386Z,36.05
2022-11-23T15:35:08.114Z,52.25
2022-11-23T15:37:46.000Z,52.08
2022-11-23T15:40:18.250Z,51.08
2022-11-23T15:42:48.864Z,52.42
2022-11-23T15:45:43.996Z,52.53
2022-11-23T15:48:15.314Z,63.72
2022-11-23T15:51:04.001Z,76.38
2022-11-23T15:53:45.055Z,95.63
2022-11-23T15:56:28.407Z,66.55
2022-11-23T15:58:58.163Z,56.20
2022-11-23T16:01:25.930Z,72.13
2022-11-23T16:03:56.687Z,56.38
2022-11-23T16:06:28.957Z,54.80
2022-11-23T16:08:56.132Z,52.22
2022-11-23T16:11:37.293Z,41.17
2022-11-23T16:14:17.382Z,47.35
2022-11-23T16:16:58.847Z,52.75
2022-11-23T16:19:30.201Z,60.10
2022-11-23T16:22:05.412Z,62.70
2022-11-23T16:24:36.186Z,36.22
2022-11-23T16:27:14.003Z,60.25
2022-11-23T16:29:41.611Z,86.40
2022-11-23T16:32:30.328Z,60.03
2022-11-23T16:35:18.289Z,69.10
2022-11-23T16:37:46.459Z,47.58
2022-11-23T16:40:14.679Z,70.85
2022-11-23T16:42:43.754Z,68.07
2022-11-23T16:45:11.304Z,81.22
2022-11-23T16:47:54.856Z,83.55
2022-11-23T16:50:23.260Z,75.72
2022-11-23T16:52:50.687Z,69.85
2022-11-23T16:55:17.554Z,49.47
2022-11-23T16:57:45.056Z,59.72
2022-11-23T17:00:18.142Z,30.58
2022-11-23T17:02:46.158Z,35.20
2022-11-23T17:05:18.149Z,52.55
2022-11-23T17:07:45.532Z,42.42
2022-11-23T17:10:14.587Z,49.38
2022-11-23T17:12:50.958Z,51.72
2022-11-23T17:15:21.043Z,39.63
2022-11-23T17:17:48.382Z,50.67
2022-11-23T17:20:17.003Z,36.15
2022-11-23T17:22:45.357Z,32.13
2022-11-23T17:25:15.092Z,29.50
2022-11-23T17:27:43.777Z,33.30
2022-11-23T17:30:17.138Z,24.63
2022-11-23T17:32:43.971Z,24.67
2022-11-23T17:35:10.981Z,31.30
2022-11-23T17:37:38.217Z,22.35
2022-11-23T17:40:09.260Z,23.95
2022-11-23T17:42:36.772Z,23.50
2022-11-23T17:45:03.729Z,29.10
2022-11-23T17:47:31.364Z,24.27
2022-11-23T17:49:58.571Z,26.60
2022-11-23T17:52:26.420Z,36.42
2022-11-23T17:54:53.367Z,18.35
2022-11-23T17:57:24.289Z,22.23
2022-11-23T17:59:51.620Z,27.13
2022-11-23T18:02:19.544Z,24.98
2022-11-23T18:04:47.840Z,21.67
2022-11-23T18:07:16.446Z,33.78
2022-11-23T18:09:43.458Z,33.53
2022-11-23T18:12:10.449Z,20.30
2022-11-23T18:14:37.510Z,25.00
2022-11-23T18:17:04.370Z,30.98
2022-11-23T18:19:31.491Z,41.75
2022-11-23T18:21:58.622Z,36.65
2022-11-23T18:24:25.480Z,57.13
2022-11-23T18:26:52.485Z,59.33
2022-11-23T18:29:19.303Z,65.55
2022-11-23T18:31:46.227Z,39.65
2022-11-23T18:34:13.159Z,48.78
2022-11-23T18:36:40.016Z,50.80
2022-11-23T18:39:06.967Z,49.88
2022-11-23T18:41:33.878Z,48.88
2022-11-23T18:44:01.140Z,33.80
2022-11-23T18:46:29.588Z,57.20
2022-11-23T18:48:57.526Z,65.05
2022-11-23T18:51:25.563Z,77.95
2022-11-23T18:53:53.372Z,86.63
2022-11-23T18:56:20.538Z,72.07
2022-11-23T18:58:47.874Z,79.53
2022-11-23T19:01:20.611Z,114.47
2022-11-23T19:03:53.095Z,108.95
2022-11-23T19:06:22.325Z,120.05
2022-11-23T19:08:51.159Z,152.02
2022-11-23T19:11:21.173Z,142.15
2022-11-23T19:13:53.957Z,102.88
2022-11-23T19:16:26.824Z,136.65
2022-11-23T19:18:59.256Z,196.93
2022-11-23T19:21:29.213Z,175.93
2022-11-23T19:23:57.426Z,179.55
2022-11-23T19:26:26.077Z,79.30
2022-11-23T19:28:53.858Z,113.18
2022-11-23T19:31:24.316Z,79.38
2022-11-23T19:33:52.935Z,82.07
2022-11-23T19:36:22.560Z,71.68
2022-11-23T19:38:50.134Z,63.47
2022-11-23T19:41:29.927Z,55.33
2022-11-23T19:43:59.847Z,57.78
2022-11-23T19:46:27.997Z,49.17
2022-11-23T19:48:57.410Z,57.90
2022-11-23T19:51:26.227Z,51.88
2022-11-23T19:53:57.290Z,53.53
2022-11-23T19:56:26.393Z,72.00
2022-11-23T19:58:55.396Z,40.67
2022-11-23T20:01:25.272Z,35.42
2022-11-23T20:03:55.012Z,50.88
2022-11-23T20:06:28.210Z,47.88
2022-11-23T20:08:59.317Z,57.08
2022-11-23T20:11:28.473Z,59.28
2022-11-23T20:13:56.098Z,55.90
2022-11-23T20:16:24.867Z,33.13
2022-11-23T20:18:58.726Z,38.43
2022-11-23T20:21:27.270Z,39.47
2022-11-23T20:24:04.363Z,46.47
2022-11-23T20:26:33.434Z,41.67
2022-11-23T20:29:00.993Z,40.58
2022-11-23T20:31:29.892Z,33.97
2022-11-23T20:33:57.477Z,28.17
2022-11-23T20:36:25.573Z,33.20
2022-11-23T20:38:53.832Z,38.67
2022-11-23T20:41:26.977Z,45.50
2022-11-23T20:43:56.958Z,43.42
2022-11-23T20:49:15.423Z,42.13
2022-11-23T20:51:42.659Z,44.33
2022-11-23T20:54:10.079Z,43.83
2022-11-23T20:56:39.389Z,30.77
2022-11-23T20:59:06.918Z,29.02
2022-11-23T21:01:38.273Z,36.30
2022-11-23T21:04:05.221Z,40.63
2022-11-23T21:06:37.221Z,37.60
2022-11-23T21:09:05.790Z,41.38
2022-11-23T21:11:51.274Z,52.95
2022-11-23T21:14:20.682Z,47.15
2022-11-23T21:16:53.204Z,51.88
2022-11-23T21:19:22.847Z,62.22
2022-11-23T21:21:50.147Z,69.55
2022-11-23T21:24:17.697Z,66.30
2022-11-23T21:26:45.064Z,70.78
2022-11-23T21:29:12.819Z,58.03
2022-11-23T21:31:43.282Z,59.90
2022-11-23T21:34:18.306Z,56.15
2022-11-23T21:36:46.393Z,65.00
2022-11-23T21:39:13.987Z,61.05
2022-11-23T21:41:42.222Z,70.55
2022-11-23T21:44:11.396Z,54.58
2022-11-23T21:46:40.165Z,54.67
2022-11-23T21:49:07.915Z,56.00
2022-11-23T21:51:36.994Z,59.40
2022-11-23T21:54:07.393Z,56.80
2022-11-23T21:56:34.579Z,61.92
2022-11-23T21:59:02.271Z,62.47
2022-11-23T22:01:35.503Z,70.15
2022-11-23T22:04:09.012Z,99.05
2022-11-23T22:06:37.932Z,85.93
2022-11-23T22:09:08.115Z,69.43
2022-11-23T22:11:37.464Z,65.10
2022-11-23T22:14:07.684Z,57.30
2022-11-23T22:16:43.256Z,54.28
2022-11-23T22:19:12.985Z,50.88
2022-11-23T22:21:41.646Z,50.17
2022-11-23T22:24:16.447Z,49.17
2022-11-23T22:26:44.460Z,56.88
2022-11-23T22:29:14.986Z,36.00
2022-11-23T22:31:43.863Z,42.55
2022-11-23T22:34:13.027Z,32.00
2022-11-23T22:36:43.364Z,41.72
2022-11-23T22:39:10.630Z,30.52
2022-11-23T22:41:38.190Z,37.63
2022-11-23T22:44:08.000Z,33.83
2022-11-23T22:46:36.433Z,40.20
2022-11-23T22:49:04.082Z,45.17
2022-11-23T22:51:31.779Z,41.42
2022-11-23T22:54:00.241Z,37.28
2022-11-23T22:56:29.030Z,37.20
2022-11-23T22:58:57.099Z,26.33
2022-11-23T23:01:27.287Z,30.65
2022-11-23T23:03:57.052Z,33.85
2022-11-23T23:06:26.353Z,22.77
2022-11-23T23:09:00.880Z,25.45
2022-11-23T23:11:30.938Z,28.65
2022-11-23T23:13:58.922Z,35.78
2022-11-23T23:16:26.625Z,28.38
2022-11-23T23:18:57.979Z,25.55
2022-11-23T23:21:27.094Z,21.27
2022-11-23T23:23:56.223Z,19.30
2022-11-23T23:26:27.320Z,17.77
2022-11-23T23:28:56.664Z,21.92
2022-11-23T23:31:27.720Z,19.45
2022-11-23T23:33:54.815Z,22.88
2022-11-23T23:36:23.751Z,28.10
2022-11-23T23:38:51.555Z,38.17
2022-11-23T23:41:18.986Z,16.05
2022-11-23T23:43:48.178Z,28.02
2022-11-23T23:46:15.741Z,23.88
2022-11-23T23:48:42.751Z,32.78
2022-11-23T23:51:24.344Z,33.55
2022-11-23T23:53:52.161Z,33.70
2022-11-23T23:56:24.898Z,36.15
2022-11-23T23:58:52.283Z,40.78
